createdAt,value
2017-08-10T00:00:39.114Z,18.40
2017-08-10T00:03:07.289Z,18.40
2017-08-10T00:05:35.496Z,18.30
2017-08-10T00:08:04.438Z,18.30
2017-08-10T00:10:32.612Z,18.30
2017-08-10T00:13:00.814Z,18.30
2017-08-10T00:15:28.985Z,18.20
2017-08-10T00:17:57.138Z,18.20
2017-08-10T00:20:25.316Z,18.20
2017-08-10T00:22:53.465Z,18.20
2017-08-10T00:25:21.640Z,18.30
2017-08-10T00:27:49.849Z,18.20
2017-08-10T00:30:18.017Z,18.30
2017-08-10T00:32:46.188Z,18.10
2017-08-10T00:35:14.399Z,18.10
2017-08-10T00:37:43.326Z,18.10
2017-08-10T00:40:11.494Z,18.10
2017-08-10T00:42:39.679Z,18.10
2017-08-10T00:45:07.855Z,18.10
2017-08-10T00:47:36.028Z,18.00
2017-08-10T00:50:04.221Z,18.00
2017-08-10T00:52:32.374Z,18.00
2017-08-10T00:55:00.553Z,18.00
2017-08-10T00:57:28.745Z,17.80
2017-08-10T00:59:56.916Z,17.70
2017-08-10T01:02:25.075Z,17.60
2017-08-10T01:04:53.285Z,17.60
2017-08-10T01:07:21.442Z,17.50
2017-08-10T01:09:49.605Z,17.50
2017-08-10T01:12:17.800Z,17.50
2017-08-10T01:14:45.962Z,17.60
2017-08-10T01:17:14.122Z,17.70
2017-08-10T01:19:42.321Z,17.70
2017-08-10T01:22:10.494Z,17.70
2017-08-10T01:24:38.667Z,17.60
2017-08-10T01:27:06.855Z,17.60
2017-08-10T01:29:35.002Z,17.50
2017-08-10T01:32:03.185Z,17.50
2017-08-10T01:34:31.385Z,17.50
2017-08-10T01:36:59.552Z,17.40
2017-08-10T01:39:27.721Z,17.40
2017-08-10T01:41:55.907Z,17.50
2017-08-10T01:44:24.064Z,17.60
2017-08-10T01:46:52.221Z,17.60
2017-08-10T01:49:20.427Z,17.50
2017-08-10T01:51:48.602Z,17.60
2017-08-10T01:54:16.751Z,17.60
2017-08-10T01:56:44.960Z,17.60
2017-08-10T01:59:13.120Z,17.60
2017-08-10T02:01:41.278Z,17.50
2017-08-10T02:04:09.462Z,17.50
2017-08-10T02:06:37.620Z,17.40
2017-08-10T02:09:05.769Z,17.40
2017-08-10T02:11:34.731Z,17.50
2017-08-10T02:14:02.906Z,17.50
2017-08-10T02:16:31.058Z,17.50
2017-08-10T02:18:59.256Z,17.50
2017-08-10T02:21:27.412Z,17.50
2017-08-10T02:23:55.584Z,17.40
2017-08-10T02:26:23.785Z,17.30
2017-08-10T02:28:51.961Z,17.30
2017-08-10T02:31:20.134Z,17.30
2017-08-10T02:33:48.338Z,17.30
2017-08-10T02:36:16.515Z,17.30
2017-08-10T02:38:44.667Z,17.20
2017-08-10T02:41:13.640Z,17.20
2017-08-10T02:43:41.788Z,17.10
2017-08-10T02:46:09.960Z,17.20
2017-08-10T02:48:38.141Z,17.10
2017-08-10T02:51:06.312Z,17.10
2017-08-10T02:53:34.483Z,17.10
2017-08-10T02:56:02.681Z,17.10
2017-08-10T02:58:30.837Z,17.10
2017-08-10T03:00:59.014Z,17.10
2017-08-10T03:03:27.222Z,17.00
2017-08-10T03:05:55.389Z,17.10
2017-08-10T03:08:23.544Z,17.10
2017-08-10T03:10:51.741Z,17.00
2017-08-10T03:13:20.780Z,17.00
2017-08-10T03:15:48.949Z,16.90
2017-08-10T03:18:17.135Z,16.90
2017-08-10T03:20:45.293Z,17.00
2017-08-10T03:23:13.457Z,16.90
2017-08-10T03:25:42.410Z,16.80
2017-08-10T03:28:10.578Z,16.80
2017-08-10T03:30:38.749Z,16.80
2017-08-10T03:33:06.956Z,16.80
2017-08-10T03:35:35.125Z,16.60
2017-08-10T03:38:03.279Z,16.50
2017-08-10T03:40:31.459Z,16.60
2017-08-10T03:42:59.614Z,16.60
2017-08-10T03:45:27.761Z,16.60
2017-08-10T03:47:55.966Z,16.60
2017-08-10T03:50:24.137Z,16.70
2017-08-10T03:52:52.309Z,16.60
2017-08-10T03:55:20.523Z,16.60
2017-08-10T03:57:48.696Z,16.50
2017-08-10T04:00:17.637Z,16.50
2017-08-10T04:02:45.837Z,16.50
2017-08-10T04:05:13.987Z,16.60
2017-08-10T04:07:42.142Z,16.60
2017-08-10T04:10:10.358Z,16.70
2017-08-10T04:12:38.535Z,16.70
2017-08-10T04:15:06.693Z,16.80
2017-08-10T04:17:34.871Z,16.80
2017-08-10T04:20:03.046Z,16.80
2017-08-10T04:22:31.218Z,16.80
2017-08-10T04:24:59.405Z,16.80
2017-08-10T04:27:27.560Z,16.80
2017-08-10T04:29:55.711Z,16.80
2017-08-10T04:32:23.894Z,16.80
2017-08-10T04:34:52.054Z,16.90
2017-08-10T04:37:20.210Z,16.80
2017-08-10T04:39:49.160Z,16.90
2017-08-10T04:42:17.336Z,16.90
2017-08-10T04:44:45.504Z,17.00
2017-08-10T04:47:13.683Z,17.00
2017-08-10T04:49:41.860Z,17.00
2017-08-10T04:52:10.006Z,16.90
2017-08-10T04:54:38.205Z,17.00
2017-08-10T04:57:06.360Z,17.00
2017-08-10T04:59:34.507Z,17.00
2017-08-10T05:02:03.454Z,17.20
2017-08-10T05:04:31.625Z,17.20
2017-08-10T05:06:59.781Z,17.30
2017-08-10T05:09:27.989Z,17.40
2017-08-10T05:11:56.162Z,17.50
2017-08-10T05:14:24.332Z,17.50
2017-08-10T05:16:52.530Z,17.70
2017-08-10T05:19:20.707Z,17.80
2017-08-10T05:21:48.863Z,17.90
2017-08-10T05:24:17.045Z,18.00
2017-08-10T05:26:45.201Z,18.00
2017-08-10T05:29:13.355Z,18.00
2017-08-10T05:31:41.535Z,18.10
2017-08-10T05:34:09.706Z,18.10
2017-08-10T05:36:37.854Z,18.10
2017-08-10T05:39:06.820Z,18.10
2017-08-10T05:41:34.977Z,18.20
2017-08-10T05:44:03.126Z,18.20
2017-08-10T05:46:31.325Z,18.20
2017-08-10T05:48:59.479Z,18.40
2017-08-10T05:51:27.651Z,18.50
2017-08-10T05:53:55.853Z,18.60
2017-08-10T05:56:24.026Z,18.70
2017-08-10T05:58:52.197Z,18.90
2017-08-10T06:01:20.424Z,19.00
2017-08-10T06:03:49.342Z,19.30
2017-08-10T06:06:17.514Z,19.30
2017-08-10T06:08:45.713Z,19.50
2017-08-10T06:11:13.868Z,19.60
2017-08-10T06:13:42.046Z,19.70
2017-08-10T06:16:10.250Z,19.80
2017-08-10T06:18:38.430Z,20.00
2017-08-10T06:21:06.586Z,20.10
2017-08-10T06:23:34.781Z,20.30
2017-08-10T06:26:02.951Z,20.50
2017-08-10T06:28:31.105Z,20.70
2017-08-10T06:30:59.285Z,20.80
2017-08-10T06:33:27.435Z,21.00
2017-08-10T06:35:55.585Z,21.10
2017-08-10T06:38:24.545Z,21.30
2017-08-10T06:40:52.716Z,21.30
2017-08-10T06:43:20.879Z,21.40
2017-08-10T06:45:49.089Z,21.60
2017-08-10T06:48:18.026Z,21.90
2017-08-10T06:50:46.178Z,21.90
2017-08-10T06:53:14.378Z,22.00
2017-08-10T06:55:42.530Z,21.90
2017-08-10T06:58:10.683Z,21.80
2017-08-10T07:00:39.650Z,21.90
2017-08-10T07:03:07.797Z,22.00
2017-08-10T07:05:35.951Z,22.10
2017-08-10T07:08:04.140Z,22.20
2017-08-10T07:10:32.301Z,22.40
2017-08-10T07:13:00.451Z,22.70
2017-08-10T07:15:29.403Z,23.40
2017-08-10T07:17:57.552Z,23.40
2017-08-10T07:20:25.699Z,23.70
2017-08-10T07:22:54.635Z,23.80
2017-08-10T07:25:22.806Z,23.80
2017-08-10T07:27:50.961Z,24.00
2017-08-10T07:30:19.157Z,24.30
2017-08-10T07:32:47.308Z,24.50
2017-08-10T07:35:15.459Z,24.40
2017-08-10T07:37:44.403Z,24.00
2017-08-10T07:40:12.548Z,24.00
2017-08-10T07:42:40.718Z,23.70
2017-08-10T07:45:08.912Z,23.50
2017-08-10T07:47:37.055Z,23.30
2017-08-10T07:50:07.105Z,22.90
2017-08-10T07:52:35.293Z,22.90
2017-08-10T07:55:03.461Z,22.90
2017-08-10T07:57:31.612Z,23.00
2017-08-10T07:59:59.786Z,23.20
2017-08-10T08:02:27.939Z,23.50
2017-08-10T08:04:56.879Z,24.00
2017-08-10T08:07:25.063Z,24.00
2017-08-10T08:09:53.211Z,24.10
2017-08-10T08:12:21.355Z,24.10
2017-08-10T08:14:50.301Z,24.40
2017-08-10T08:17:18.573Z,24.40
2017-08-10T08:19:46.740Z,24.50
2017-08-10T08:22:14.934Z,24.50
2017-08-10T08:24:43.103Z,24.50
2017-08-10T08:27:11.269Z,24.80
2017-08-10T08:29:39.461Z,25.30
2017-08-10T08:32:07.634Z,25.90
2017-08-10T08:34:35.788Z,26.90
2017-08-10T08:37:03.990Z,27.50
2017-08-10T08:39:32.149Z,27.90
2017-08-10T08:42:00.303Z,28.20
2017-08-10T08:44:28.509Z,29.20
2017-08-10T08:46:56.687Z,30.10
2017-08-10T08:49:24.835Z,30.50
2017-08-10T08:51:53.015Z,30.90
2017-08-10T08:54:21.186Z,31.40
2017-08-10T08:56:49.343Z,31.60
2017-08-10T08:59:17.520Z,32.20
2017-08-10T09:01:45.674Z,33.40
2017-08-10T09:04:13.830Z,34.50
2017-08-10T09:06:42.017Z,35.10
2017-08-10T09:09:10.945Z,36.70
2017-08-10T09:11:39.094Z,36.70
2017-08-10T09:14:08.049Z,36.20
2017-08-10T09:16:36.215Z,36.10
2017-08-10T09:19:04.382Z,35.20
2017-08-10T09:21:32.597Z,35.70
2017-08-10T09:24:01.507Z,36.40
2017-08-10T09:26:29.666Z,36.40
2017-08-10T09:28:58.610Z,36.30
2017-08-10T09:31:26.769Z,36.20
2017-08-10T09:33:54.933Z,34.90
2017-08-10T09:36:23.103Z,33.60
2017-08-10T09:38:51.247Z,31.90
2017-08-10T09:41:19.432Z,30.80
2017-08-10T09:43:47.608Z,29.80
2017-08-10T09:46:15.757Z,28.90
2017-08-10T09:48:43.928Z,28.10
2017-08-10T09:51:12.128Z,27.50
2017-08-10T09:53:40.278Z,27.10
2017-08-10T09:56:08.438Z,26.80
2017-08-10T09:58:36.634Z,26.80
2017-08-10T10:01:06.490Z,26.70
2017-08-10T10:03:34.664Z,26.70
2017-08-10T10:06:02.869Z,26.60
2017-08-10T10:08:31.030Z,26.40
2017-08-10T10:10:59.201Z,26.30
2017-08-10T10:13:27.409Z,26.20
2017-08-10T10:15:55.558Z,26.20
2017-08-10T10:18:23.706Z,26.30
2017-08-10T10:20:51.890Z,26.30
2017-08-10T10:23:20.061Z,26.40
2017-08-10T10:25:48.209Z,26.50
2017-08-10T10:28:16.404Z,26.50
2017-08-10T10:30:44.581Z,26.80
2017-08-10T10:33:12.761Z,27.30
2017-08-10T10:35:40.953Z,28.50
2017-08-10T10:38:09.104Z,30.60
2017-08-10T10:40:37.255Z,31.80
2017-08-10T10:43:05.449Z,32.00
2017-08-10T10:45:33.626Z,31.60
2017-08-10T10:48:01.778Z,30.50
2017-08-10T10:50:29.975Z,29.60
2017-08-10T10:52:58.140Z,29.10
2017-08-10T10:55:26.304Z,28.80
2017-08-10T10:57:55.250Z,29.50
2017-08-10T11:00:23.421Z,29.40
2017-08-10T11:02:51.566Z,29.50
2017-08-10T11:05:19.765Z,29.40
2017-08-10T11:07:47.930Z,29.30
2017-08-10T11:10:16.097Z,28.90
2017-08-10T11:12:44.278Z,28.70
2017-08-10T11:15:12.423Z,28.60
2017-08-10T11:17:40.584Z,28.30
2017-08-10T11:20:09.530Z,27.90
2017-08-10T11:22:37.707Z,27.90
2017-08-10T11:25:05.879Z,27.80
2017-08-10T11:27:34.059Z,27.60
2017-08-10T11:30:02.233Z,27.40
2017-08-10T11:32:30.405Z,27.40
2017-08-10T11:34:58.591Z,27.70
2017-08-10T11:37:26.749Z,27.80
2017-08-10T11:39:54.905Z,27.70
2017-08-10T11:42:23.082Z,27.40
2017-08-10T11:44:51.257Z,27.00
2017-08-10T11:47:19.407Z,26.30
2017-08-10T11:49:48.354Z,25.80
2017-08-10T11:52:16.510Z,25.80
2017-08-10T11:54:44.687Z,25.60
2017-08-10T11:57:12.892Z,25.10
2017-08-10T11:59:41.067Z,24.70
2017-08-10T12:02:09.223Z,24.40
2017-08-10T12:04:37.420Z,24.10
2017-08-10T12:07:05.580Z,23.90
2017-08-10T12:09:33.731Z,23.70
2017-08-10T12:12:01.905Z,23.50
2017-08-10T12:14:30.051Z,23.50
2017-08-10T12:16:58.218Z,23.80
2017-08-10T12:19:27.182Z,23.70
2017-08-10T12:21:55.330Z,23.70
2017-08-10T12:24:23.497Z,23.60
2017-08-10T12:26:51.677Z,23.40
2017-08-10T12:29:19.830Z,23.50
2017-08-10T12:31:47.987Z,23.30
2017-08-10T12:34:17.264Z,22.80
2017-08-10T12:36:45.415Z,22.80
2017-08-10T12:39:13.561Z,22.70
2017-08-10T12:41:41.736Z,22.70
2017-08-10T12:44:09.903Z,22.60
2017-08-10T12:46:38.061Z,22.60
2017-08-10T12:49:07.002Z,22.30
2017-08-10T12:51:35.165Z,22.30
2017-08-10T12:54:03.314Z,22.20
2017-08-10T12:56:31.502Z,22.20
2017-08-10T12:58:59.669Z,22.00
2017-08-10T13:01:27.815Z,22.10
2017-08-10T13:03:56.771Z,22.00
2017-08-10T13:06:24.925Z,22.00
2017-08-10T13:08:53.075Z,22.20
2017-08-10T13:11:21.250Z,22.30
2017-08-10T13:13:49.399Z,22.40
2017-08-10T13:16:18.336Z,22.40
2017-08-10T13:18:46.693Z,22.40
2017-08-10T13:21:14.851Z,22.50
2017-08-10T13:23:43.793Z,22.70
2017-08-10T13:26:11.985Z,22.70
2017-08-10T13:28:40.160Z,22.90
2017-08-10T13:31:08.309Z,23.00
2017-08-10T13:33:36.491Z,23.20
2017-08-10T13:36:04.656Z,23.40
2017-08-10T13:38:32.826Z,23.70
2017-08-10T13:41:01.009Z,23.70
2017-08-10T13:43:29.177Z,23.80
2017-08-10T13:45:57.338Z,24.00
2017-08-10T13:48:25.514Z,24.00
2017-08-10T13:50:53.663Z,24.10
2017-08-10T13:53:22.593Z,24.40
2017-08-10T13:55:50.793Z,24.40
2017-08-10T13:58:18.960Z,24.60
2017-08-10T14:00:47.138Z,24.70
2017-08-10T14:03:15.315Z,24.90
2017-08-10T14:05:43.462Z,24.90
2017-08-10T14:08:11.629Z,24.90
2017-08-10T14:10:39.809Z,25.00
2017-08-10T14:13:07.964Z,24.80
2017-08-10T14:15:36.128Z,24.70
2017-08-10T14:18:05.141Z,24.50
2017-08-10T14:20:33.306Z,24.50
2017-08-10T14:23:01.462Z,24.40
2017-08-10T14:25:30.415Z,24.30
2017-08-10T14:27:58.580Z,24.30
2017-08-10T14:30:26.735Z,24.20
2017-08-10T14:32:54.931Z,24.10
2017-08-10T14:35:23.101Z,24.00
2017-08-10T14:37:51.262Z,23.90
2017-08-10T14:40:19.435Z,24.00
2017-08-10T14:42:47.606Z,24.20
2017-08-10T14:45:15.769Z,24.30
2017-08-10T14:47:43.968Z,24.40
2017-08-10T14:50:12.135Z,24.50
2017-08-10T14:52:40.302Z,24.40
2017-08-10T14:55:08.495Z,24.40
2017-08-10T14:57:36.665Z,24.40
2017-08-10T15:00:04.812Z,24.30
2017-08-10T15:02:33.769Z,24.20
2017-08-10T15:05:01.930Z,24.20
2017-08-10T15:07:30.104Z,24.20
2017-08-10T15:09:58.301Z,24.20
2017-08-10T15:12:26.473Z,24.30
2017-08-10T15:14:54.641Z,24.40
2017-08-10T15:17:22.834Z,24.40
2017-08-10T15:19:50.985Z,24.50
2017-08-10T15:22:19.152Z,24.50
2017-08-10T15:24:47.345Z,24.50
2017-08-10T15:27:15.494Z,24.50
2017-08-10T15:29:43.637Z,24.40
2017-08-10T15:32:11.811Z,24.50
2017-08-10T15:34:39.973Z,24.50
2017-08-10T15:37:08.886Z,24.60
2017-08-10T15:39:37.062Z,24.60
2017-08-10T15:42:05.219Z,24.50
2017-08-10T15:44:33.387Z,24.50
2017-08-10T15:47:01.562Z,24.60
2017-08-10T15:49:30.496Z,24.60
2017-08-10T15:51:58.661Z,24.60
2017-08-10T15:54:26.858Z,24.40
2017-08-10T15:56:55.025Z,24.50
2017-08-10T15:59:23.190Z,24.60
2017-08-10T16:01:51.386Z,24.60
2017-08-10T16:04:19.545Z,24.40
2017-08-10T16:06:47.713Z,24.50
2017-08-10T16:09:15.886Z,24.40
2017-08-10T16:11:44.063Z,24.50
2017-08-10T16:14:18.054Z,24.40
2017-08-10T16:16:46.225Z,24.30
2017-08-10T16:19:14.392Z,24.20
2017-08-10T16:21:42.569Z,24.20
2017-08-10T16:24:10.738Z,24.20
2017-08-10T16:26:38.890Z,24.20
2017-08-10T16:29:07.085Z,24.20
2017-08-10T16:31:35.994Z,24.30
2017-08-10T16:34:04.142Z,24.30
2017-08-10T16:36:33.082Z,24.30
2017-08-10T16:39:01.244Z,24.30
2017-08-10T16:41:29.394Z,24.30
2017-08-10T16:43:57.592Z,24.40
2017-08-10T16:46:25.737Z,24.40
2017-08-10T16:48:54.669Z,24.30
2017-08-10T16:51:22.843Z,24.20
2017-08-10T16:53:51.018Z,24.20
2017-08-10T16:56:19.193Z,24.10
2017-08-10T16:58:47.804Z,24.20
2017-08-10T17:01:15.951Z,24.20
2017-08-10T17:03:44.100Z,24.20
2017-08-10T17:06:12.293Z,24.20
2017-08-10T17:08:40.442Z,24.20
2017-08-10T17:11:08.605Z,24.10
2017-08-10T17:13:36.774Z,24.10
2017-08-10T17:16:05.711Z,23.90
2017-08-10T17:18:33.854Z,23.90
2017-08-10T17:21:02.045Z,23.90
2017-08-10T17:23:30.192Z,23.80
2017-08-10T17:25:58.337Z,23.70
2017-08-10T17:28:26.535Z,23.60
2017-08-10T17:30:54.689Z,23.70
2017-08-10T17:33:22.843Z,23.60
2017-08-10T17:35:51.024Z,23.60
2017-08-10T17:38:19.189Z,23.60
2017-08-10T17:40:47.335Z,23.60
2017-08-10T17:43:15.541Z,23.50
2017-08-10T17:45:43.709Z,23.60
2017-08-10T17:48:11.862Z,23.60
2017-08-10T17:50:40.049Z,23.60
2017-08-10T17:53:08.197Z,23.60
2017-08-10T17:55:36.372Z,23.60
2017-08-10T17:58:04.548Z,23.60
2017-08-10T18:00:32.702Z,23.60
2017-08-10T18:03:00.847Z,23.40
2017-08-10T18:05:29.017Z,23.40
2017-08-10T18:07:57.184Z,23.40
2017-08-10T18:10:25.330Z,23.30
2017-08-10T18:12:53.534Z,23.20
2017-08-10T18:15:21.679Z,23.20
2017-08-10T18:17:49.833Z,23.10
2017-08-10T18:20:18.791Z,22.90
2017-08-10T18:22:46.935Z,22.90
2017-08-10T18:25:15.101Z,22.90
2017-08-10T18:27:43.291Z,22.90
2017-08-10T18:30:11.458Z,22.70
2017-08-10T18:32:39.640Z,22.70
2017-08-10T18:35:07.841Z,22.60
2017-08-10T18:37:36.001Z,22.60
2017-08-10T18:40:04.154Z,22.60
2017-08-10T18:42:32.337Z,22.60
2017-08-10T18:45:00.506Z,22.60
2017-08-10T18:47:28.671Z,22.60
2017-08-10T18:49:56.849Z,22.50
2017-08-10T18:52:24.998Z,22.50
2017-08-10T18:54:53.923Z,22.60
2017-08-10T18:57:22.116Z,22.60
2017-08-10T18:59:50.281Z,22.70
2017-08-10T19:02:18.432Z,22.70
2017-08-10T19:04:46.731Z,22.60
2017-08-10T19:07:14.878Z,22.60
2017-08-10T19:09:43.048Z,22.60
2017-08-10T19:12:11.255Z,22.50
2017-08-10T19:14:39.416Z,22.50
2017-08-10T19:17:07.565Z,22.40
2017-08-10T19:19:35.751Z,22.30
2017-08-10T19:22:03.917Z,22.20
2017-08-10T19:24:32.100Z,22.10
2017-08-10T19:27:00.278Z,22.10
2017-08-10T19:29:28.430Z,22.10
2017-08-10T19:31:57.348Z,22.00
2017-08-10T19:34:25.547Z,22.00
2017-08-10T19:36:53.708Z,22.00
2017-08-10T19:39:21.870Z,21.80
2017-08-10T19:41:50.067Z,21.70
2017-08-10T19:44:18.234Z,21.70
2017-08-10T19:46:46.405Z,21.70
2017-08-10T19:49:14.578Z,21.60
2017-08-10T19:51:42.726Z,21.50
2017-08-10T19:54:11.657Z,21.50
2017-08-10T19:56:39.832Z,21.50
2017-08-10T19:59:07.986Z,21.40
2017-08-10T20:01:36.150Z,21.30
2017-08-10T20:04:04.352Z,21.20
2017-08-10T20:06:32.517Z,21.10
2017-08-10T20:09:00.689Z,21.00
2017-08-10T20:11:28.896Z,21.00
2017-08-10T20:13:57.061Z,20.90
2017-08-10T20:16:25.206Z,20.90
2017-08-10T20:18:53.395Z,20.80
2017-08-10T20:21:21.564Z,20.80
2017-08-10T20:23:49.708Z,20.70
2017-08-10T20:26:18.669Z,20.60
2017-08-10T20:28:46.836Z,20.60
2017-08-10T20:31:14.989Z,20.60
2017-08-10T20:33:43.200Z,20.60
2017-08-10T20:36:11.444Z,20.50
2017-08-10T20:38:39.590Z,20.50
2017-08-10T20:41:07.789Z,20.50
2017-08-10T20:43:35.935Z,20.50
2017-08-10T20:46:04.083Z,20.50
2017-08-10T20:48:32.263Z,20.40
2017-08-10T20:51:01.202Z,20.50
2017-08-10T20:53:29.372Z,20.40
2017-08-10T20:55:57.569Z,20.50
2017-08-10T20:58:25.710Z,20.40
2017-08-10T21:00:53.860Z,20.30
2017-08-10T21:03:22.822Z,20.10
2017-08-10T21:05:50.979Z,20.20
2017-08-10T21:08:19.145Z,20.00
2017-08-10T21:10:47.320Z,20.00
2017-08-10T21:13:15.484Z,19.90
2017-08-10T21:15:43.630Z,19.90
2017-08-10T21:18:12.585Z,19.70
2017-08-10T21:20:40.757Z,19.70
2017-08-10T21:23:08.910Z,19.70
2017-08-10T21:25:37.113Z,19.70
2017-08-10T21:28:05.281Z,19.60
2017-08-10T21:30:33.450Z,19.60
2017-08-10T21:33:01.634Z,19.60
2017-08-10T21:35:29.804Z,19.70
2017-08-10T21:37:57.982Z,19.60
2017-08-10T21:40:26.156Z,19.60
2017-08-10T21:42:54.311Z,19.60
2017-08-10T21:45:22.454Z,19.50
2017-08-10T21:47:50.626Z,19.50
2017-08-10T21:50:18.796Z,19.40
2017-08-10T21:52:46.972Z,19.40
2017-08-10T21:55:15.170Z,19.40
2017-08-10T21:57:43.338Z,19.40
2017-08-10T22:00:11.515Z,19.30
2017-08-10T22:02:39.698Z,19.20
2017-08-10T22:05:07.842Z,19.20
2017-08-10T22:07:35.989Z,19.20
2017-08-10T22:10:04.154Z,19.20
2017-08-10T22:12:32.300Z,19.20
2017-08-10T22:15:00.471Z,19.20
2017-08-10T22:17:28.665Z,19.20
2017-08-10T22:19:56.824Z,19.20
2017-08-10T22:22:24.938Z,19.10
2017-08-10T22:24:53.130Z,19.10
2017-08-10T22:27:22.056Z,19.10
2017-08-10T22:29:50.195Z,19.10
2017-08-10T22:32:18.386Z,19.10
2017-08-10T22:34:46.530Z,19.10
2017-08-10T22:37:14.674Z,19.10
2017-08-10T22:39:42.854Z,19.10
2017-08-10T22:42:10.975Z,19.00
2017-08-10T22:44:39.095Z,19.00
2017-08-10T22:47:07.291Z,19.00
2017-08-10T22:49:35.462Z,19.10
2017-08-10T22:52:03.606Z,19.00
2017-08-10T22:54:32.308Z,19.00
2017-08-10T22:57:00.474Z,19.00
2017-08-10T22:59:28.626Z,19.00
2017-08-10T23:01:56.837Z,19.10
2017-08-10T23:04:24.994Z,19.00
2017-08-10T23:06:53.164Z,19.00
2017-08-10T23:09:21.361Z,19.00
2017-08-10T23:11:49.533Z,18.90
2017-08-10T23:14:17.685Z,19.00
2017-08-10T23:16:45.889Z,19.00
2017-08-10T23:19:14.048Z,18.90
2017-08-10T23:21:42.191Z,18.90
2017-08-10T23:24:10.367Z,19.00
2017-08-10T23:26:38.692Z,19.00
2017-08-10T23:29:06.872Z,19.00
2017-08-10T23:31:35.047Z,19.00
2017-08-10T23:34:03.213Z,19.00
2017-08-10T23:36:31.360Z,19.00
2017-08-10T23:38:59.565Z,19.00
2017-08-10T23:41:27.733Z,19.00
2017-08-10T23:43:55.900Z,18.90
2017-08-10T23:46:24.101Z,18.90
2017-08-10T23:48:52.269Z,18.90
2017-08-10T23:51:20.445Z,18.90
2017-08-10T23:53:48.656Z,18.90
2017-08-10T23:56:16.809Z,18.90
2017-08-10T23:58:45.694Z,18.80
